Time;durP1;ratioP1;P1;durP2;ratioP2;P2;SDS_P1;SDS_P2;PMS_P1;PMS_P2;Temp;Humidity;BMP_temperature;BMP_pressure;BME280_temperature;BME280_humidity;BME280_pressure;Samples;Min_cycle;Max_cycle;Signal;HPM_P1;HPM_P2
2023/05/15 00:00:43;;;;;;;3.17;1.50;;;10.40;99.90;;;;;;5072978;28;20945;-80
2023/05/15 00:03:09;;;;;;;2.13;0.90;;;10.40;99.90;;;;;;5072829;28;20493;-79
2023/05/15 00:05:38;;;;;;;1.70;0.97;;;10.40;99.90;;;;;;5072911;28;20452;-80
2023/05/15 00:08:05;;;;;;;2.47;1.07;;;10.30;99.90;;;;;;5072997;28;20449;-80
2023/05/15 00:10:32;;;;;;;1.17;1.00;;;10.30;99.90;;;;;;5072846;28;20858;-80
2023/05/15 00:12:58;;;;;;;4.90;1.37;;;10.30;99.90;;;;;;5072824;28;20840;-80
2023/05/15 00:15:25;;;;;;;2.73;1.43;;;10.30;99.90;;;;;;5073150;28;20452;-80
2023/05/15 00:17:52;;;;;;;0.90;0.90;;;10.30;99.90;;;;;;5072787;28;21027;-80
2023/05/15 00:20:18;;;;;;;1.07;0.93;;;10.30;99.90;;;;;;5073149;28;20486;-80
2023/05/15 00:22:47;;;;;;;2.43;1.20;;;10.30;99.90;;;;;;5073012;28;20477;-80
2023/05/15 00:25:14;;;;;;;1.07;0.97;;;10.30;99.90;;;;;;5072777;28;20445;-79
2023/05/15 00:27:40;;;;;;;5.50;1.70;;;10.30;99.90;;;;;;5073004;28;20446;-79
2023/05/15 00:30:08;;;;;;;1.10;1.00;;;10.30;99.90;;;;;;5072727;28;20944;-79
2023/05/15 00:32:35;;;;;;;1.20;0.83;;;10.30;99.90;;;;;;5072926;28;20537;-79
2023/05/15 00:35:02;;;;;;;2.50;1.40;;;10.30;99.90;;;;;;5072952;28;20797;-80
2023/05/15 00:37:28;;;;;;;3.90;1.80;;;10.30;99.90;;;;;;5072577;28;21008;-79
2023/05/15 00:39:57;;;;;;;1.63;1.10;;;10.30;99.90;;;;;;5072919;28;20453;-79
2023/05/15 00:42:24;;;;;;;1.57;0.77;;;10.30;99.90;;;;;;5072815;28;20453;-79
2023/05/15 00:44:53;;;;;;;1.13;0.93;;;10.30;99.90;;;;;;5072848;28;20449;-80
2023/05/15 00:47:22;;;;;;;1.40;1.03;;;10.30;99.90;;;;;;5072534;28;20810;-79
2023/05/15 00:49:49;;;;;;;1.53;0.90;;;10.30;99.90;;;;;;5072860;28;20445;-79
2023/05/15 00:52:17;;;;;;;2.50;1.03;;;10.30;99.90;;;;;;5072421;28;20967;-79
2023/05/15 00:54:43;;;;;;;1.67;1.40;;;10.30;99.90;;;;;;5072831;28;20488;-80
2023/05/15 00:57:12;;;;;;;2.70;1.27;;;10.30;99.90;;;;;;5072337;28;20504;-79
2023/05/15 00:59:39;;;;;;;1.37;0.90;;;10.30;99.90;;;;;;5072734;28;20454;-79
2023/05/15 01:02:06;;;;;;;1.10;1.00;;;10.30;99.90;;;;;;5072485;28;20453;-80
2023/05/15 01:04:33;;;;;;;0.80;0.63;;;10.30;99.90;;;;;;5072655;28;20469;-79
2023/05/15 01:06:59;;;;;;;1.27;1.13;;;10.30;99.90;;;;;;5072668;28;20453;-79
2023/05/15 01:09:29;;;;;;;2.13;1.33;;;10.30;99.90;;;;;;5072335;28;20810;-79
2023/05/15 01:11:58;;;;;;;2.90;0.80;;;10.30;99.90;;;;;;5076326;28;20445;-79
2023/05/15 01:14:27;;;;;;;1.60;0.90;;;10.40;99.90;;;;;;5076129;28;20469;-80
2023/05/15 01:16:53;;;;;;;1.27;0.70;;;10.30;99.90;;;;;;5075822;28;21070;-80
2023/05/15 01:19:20;;;;;;;1.00;0.90;;;10.40;99.90;;;;;;5076157;28;20469;-80
2023/05/15 01:22:26;;;;;;;1.03;0.70;;;10.40;99.90;;;;;;5075806;28;20445;-79
2023/05/15 01:25:16;;;;;;;6.90;1.77;;;10.40;99.90;;;;;;5070833;28;20449;-80
2023/05/15 01:27:50;;;;;;;2.10;0.90;;;10.50;99.90;;;;;;5075962;28;20418;-80
2023/05/15 01:30:22;;;;;;;0.90;0.90;;;10.50;99.90;;;;;;5075969;28;20457;-80
2023/05/15 01:32:55;;;;;;;1.17;1.00;;;10.50;99.90;;;;;;5075878;28;20469;-80
2023/05/15 01:35:27;;;;;;;1.83;0.80;;;10.50;99.90;;;;;;5075651;28;20406;-79
2023/05/15 01:38:02;;;;;;;1.20;0.87;;;10.50;99.90;;;;;;5075554;28;20466;-79
2023/05/15 01:40:29;;;;;;;2.63;1.60;;;10.60;99.90;;;;;;5075861;28;20433;-80
2023/05/15 01:43:03;;;;;;;2.37;1.10;;;10.60;99.90;;;;;;5075621;28;20469;-79
2023/05/15 01:45:33;;;;;;;3.60;1.13;;;10.60;99.90;;;;;;5075733;28;20434;-79
2023/05/15 01:48:01;;;;;;;2.00;1.00;;;10.60;99.90;;;;;;5075641;28;20446;-79
2023/05/15 01:50:30;;;;;;;1.40;0.97;;;10.60;99.90;;;;;;5075594;28;20457;-80
2023/05/15 01:53:00;;;;;;;2.27;1.47;;;10.70;99.90;;;;;;5075479;28;20469;-80
2023/05/15 01:55:29;;;;;;;3.23;1.63;;;10.70;99.90;;;;;;5075529;28;20438;-79
2023/05/15 01:58:01;;;;;;;2.43;1.27;;;10.70;99.90;;;;;;5075106;28;20477;-80
2023/05/15 02:00:29;;;;;;;1.60;1.40;;;10.70;99.90;;;;;;5075463;28;20418;-79
2023/05/15 02:02:57;;;;;;;1.20;1.10;;;10.70;99.90;;;;;;5074932;28;20485;-80
2023/05/15 02:05:25;;;;;;;2.33;1.20;;;10.60;99.90;;;;;;5075290;28;20453;-79
2023/05/15 02:07:52;;;;;;;2.00;1.57;;;10.60;99.90;;;;;;5075212;28;20446;-79
2023/05/15 02:10:19;;;;;;;3.10;1.37;;;10.60;99.90;;;;;;5075204;28;20452;-79
2023/05/15 02:12:46;;;;;;;4.53;0.80;;;10.60;99.90;;;;;;5075115;28;20472;-80
2023/05/15 02:15:17;;;;;;;2.20;0.87;;;10.70;99.90;;;;;;5074789;28;20453;-80
2023/05/15 02:17:44;;;;;;;1.17;0.87;;;10.70;99.90;;;;;;5075033;28;20465;-80
2023/05/15 02:20:11;;;;;;;0.90;0.80;;;10.70;99.90;;;;;;5075007;28;20475;-79
2023/05/15 02:22:37;;;;;;;1.57;1.40;;;10.70;99.90;;;;;;5074945;28;20472;-80
2023/05/15 02:25:05;;;;;;;1.77;0.97;;;10.80;99.90;;;;;;5077290;28;20829;-79
2023/05/15 02:27:38;;;;;;;1.50;0.73;;;10.80;99.90;;;;;;5074926;28;20964;-80
2023/05/15 02:30:18;;;;;;;1.23;0.87;;;10.80;99.90;;;;;;5074516;28;20434;-80
2023/05/15 02:32:54;;;;;;;1.17;1.07;;;10.80;99.90;;;;;;5074650;28;20472;-80
2023/05/15 02:35:26;;;;;;;1.20;1.00;;;10.80;99.90;;;;;;5074394;28;20437;-80
2023/05/15 02:37:56;;;;;;;1.27;0.90;;;10.80;99.90;;;;;;5074532;28;20470;-80
2023/05/15 02:40:26;;;;;;;2.80;1.50;;;10.80;99.90;;;;;;5074568;28;20476;-80
2023/05/15 02:42:53;;;;;;;1.33;1.17;;;10.80;99.90;;;;;;5074416;28;20474;-80
2023/05/15 02:45:20;;;;;;;2.60;1.23;;;10.80;99.90;;;;;;5074441;28;20485;-80
2023/05/15 02:47:50;;;;;;;1.27;1.07;;;10.70;99.90;;;;;;5074381;28;20453;-80
2023/05/15 02:50:17;;;;;;;2.30;1.63;;;10.70;99.90;;;;;;5074325;28;20449;-80
2023/05/15 02:52:44;;;;;;;1.97;1.10;;;10.70;99.90;;;;;;5073945;28;20968;-80
2023/05/15 02:55:10;;;;;;;1.77;1.43;;;10.70;99.90;;;;;;5074246;28;20444;-80
2023/05/15 02:57:37;;;;;;;2.83;1.13;;;10.70;99.90;;;;;;5074131;28;20484;-80
2023/05/15 03:00:06;;;;;;;3.63;1.40;;;10.70;99.90;;;;;;5074198;28;20430;-80
2023/05/15 03:02:32;;;;;;;1.43;1.10;;;10.70;99.90;;;;;;5073576;28;20539;-80
2023/05/15 03:05:00;;;;;;;2.60;1.40;;;10.70;99.90;;;;;;5074117;28;20446;-80
2023/05/15 03:07:27;;;;;;;1.10;0.90;;;10.70;99.90;;;;;;5074015;28;20441;-80
2023/05/15 03:09:54;;;;;;;1.20;0.73;;;10.80;99.90;;;;;;5074001;28;20442;-80
2023/05/15 03:12:21;;;;;;;1.67;1.27;;;10.80;99.90;;;;;;5073899;28;20450;-80
2023/05/15 03:14:47;;;;;;;1.20;1.00;;;10.80;99.90;;;;;;5073916;28;20449;-80
2023/05/15 03:17:14;;;;;;;1.00;0.90;;;10.80;99.90;;;;;;5073452;28;21008;-80
2023/05/15 03:19:41;;;;;;;3.87;1.57;;;10.80;99.90;;;;;;5073848;28;20446;-80
2023/05/15 03:22:09;;;;;;;2.70;1.17;;;10.80;99.90;;;;;;5073523;28;20445;-79
2023/05/15 03:24:35;;;;;;;1.17;0.90;;;10.80;99.90;;;;;;5073713;28;20474;-80
2023/05/15 03:27:03;;;;;;;3.60;0.90;;;10.80;99.90;;;;;;5073755;28;20835;-80
2023/05/15 03:29:30;;;;;;;1.53;1.07;;;10.80;99.90;;;;;;5073920;28;20437;-80
2023/05/15 03:31:57;;;;;;;1.63;1.10;;;10.80;99.90;;;;;;5073649;28;20472;-80
2023/05/15 03:34:23;;;;;;;1.40;1.13;;;10.90;99.90;;;;;;5073156;28;20480;-80
2023/05/15 03:36:50;;;;;;;1.17;0.60;;;10.90;99.90;;;;;;5073221;28;20979;-80
2023/05/15 03:39:18;;;;;;;1.07;0.97;;;10.90;99.90;;;;;;5073560;28;20448;-80
2023/05/15 03:41:45;;;;;;;0.73;0.73;;;10.90;99.90;;;;;;5073553;28;20449;-79
2023/05/15 03:44:12;;;;;;;1.10;0.73;;;10.90;99.90;;;;;;5073427;28;20473;-80
2023/05/15 03:46:38;;;;;;;5.70;1.30;;;10.90;99.90;;;;;;5073469;28;20450;-80
2023/05/15 03:49:05;;;;;;;2.03;1.30;;;10.90;99.90;;;;;;5073398;28;20832;-80
2023/05/15 03:51:32;;;;;;;2.50;1.67;;;10.90;99.90;;;;;;5073111;28;20956;-80
2023/05/15 03:53:59;;;;;;;2.40;0.97;;;11.00;99.90;;;;;;5073303;28;20469;-79
2023/05/15 03:56:27;;;;;;;1.30;0.90;;;11.00;99.90;;;;;;5073343;28;20456;-80
2023/05/15 03:58:53;;;;;;;3.03;1.27;;;11.00;99.90;;;;;;5073215;28;20847;-79
2023/05/15 04:01:20;;;;;;;1.20;0.83;;;11.00;99.90;;;;;;5073335;28;20476;-80
2023/05/15 04:03:47;;;;;;;1.17;1.07;;;11.00;99.90;;;;;;5072886;28;20980;-79
2023/05/15 04:06:13;;;;;;;1.20;1.10;;;11.00;99.90;;;;;;5073272;28;20473;-79
2023/05/15 04:08:40;;;;;;;1.70;0.90;;;11.00;99.90;;;;;;5073310;28;20468;-79
2023/05/15 04:11:07;;;;;;;1.70;1.00;;;11.00;99.90;;;;;;5073199;28;20457;-79
2023/05/15 04:13:35;;;;;;;1.30;1.13;;;11.00;99.90;;;;;;5072836;28;20843;-79
2023/05/15 04:16:03;;;;;;;2.13;1.47;;;11.00;99.90;;;;;;5073194;28;20452;-80
2023/05/15 04:18:29;;;;;;;0.93;0.80;;;11.10;99.90;;;;;;5072794;28;21042;-79
2023/05/15 04:20:56;;;;;;;1.30;1.00;;;11.10;99.90;;;;;;5073164;28;20453;-79
2023/05/15 04:23:23;;;;;;;1.93;1.20;;;11.10;99.90;;;;;;5073023;28;20469;-79
2023/05/15 04:25:52;;;;;;;1.47;1.20;;;11.10;99.90;;;;;;5073051;28;20453;-80
2023/05/15 04:28:20;;;;;;;1.23;1.07;;;11.10;99.90;;;;;;5073027;28;20449;-80
2023/05/15 04:30:48;;;;;;;1.87;1.10;;;11.20;99.90;;;;;;5073027;28;20503;-80
2023/05/15 04:33:15;;;;;;;0.93;0.80;;;11.20;99.90;;;;;;5072716;28;20562;-79
2023/05/15 04:35:42;;;;;;;1.53;1.43;;;11.20;99.90;;;;;;5072996;28;20453;-80
2023/05/15 04:38:09;;;;;;;1.07;0.87;;;11.30;99.90;;;;;;5072890;28;20492;-79
2023/05/15 04:40:35;;;;;;;2.83;1.30;;;11.20;99.90;;;;;;5072940;28;20816;-79
2023/05/15 04:43:02;;;;;;;3.60;1.50;;;11.20;99.90;;;;;;5072576;28;20456;-79
2023/05/15 04:45:29;;;;;;;2.50;1.40;;;11.20;99.90;;;;;;5074191;28;20480;-79
2023/05/15 04:47:57;;;;;;;0.87;0.83;;;11.20;99.90;;;;;;5076741;28;20457;-79
2023/05/15 04:50:24;;;;;;;1.23;0.90;;;11.10;99.90;;;;;;5077016;28;20525;-79
2023/05/15 04:52:51;;;;;;;1.57;1.23;;;11.10;99.90;;;;;;5076357;28;20454;-79
2023/05/15 04:55:18;;;;;;;2.20;1.23;;;11.20;99.90;;;;;;5076602;28;20437;-79
2023/05/15 04:57:46;;;;;;;2.53;1.47;;;11.20;99.90;;;;;;5076306;28;20481;-79
2023/05/15 05:00:14;;;;;;;1.20;1.03;;;11.20;99.90;;;;;;5076164;28;20968;-79
2023/05/15 05:02:42;;;;;;;1.10;1.00;;;11.30;99.90;;;;;;5076098;28;20481;-79
2023/05/15 05:05:10;;;;;;;3.27;1.43;;;11.30;99.90;;;;;;5076349;28;20455;-79
2023/05/15 05:07:37;;;;;;;2.83;2.10;;;11.30;99.90;;;;;;5076353;28;20445;-79
2023/05/15 05:10:05;;;;;;;2.50;1.50;;;11.40;99.90;;;;;;5076006;28;20453;-79
2023/05/15 05:12:31;;;;;;;2.07;1.30;;;11.40;99.90;;;;;;5076129;28;20448;-79
2023/05/15 05:14:58;;;;;;;1.73;1.00;;;11.50;99.90;;;;;;5075930;28;20453;-79
2023/05/15 05:17:25;;;;;;;2.20;1.43;;;11.60;99.90;;;;;;5076124;28;20450;-79
2023/05/15 05:19:52;;;;;;;6.67;1.37;;;11.60;99.90;;;;;;5076390;28;20438;-79
2023/05/15 05:22:20;;;;;;;1.27;1.20;;;11.60;99.90;;;;;;5075923;28;20460;-79
2023/05/15 05:24:46;;;;;;;3.40;1.40;;;11.70;99.90;;;;;;5075730;28;20834;-79
2023/05/15 05:27:13;;;;;;;2.10;1.33;;;11.70;99.90;;;;;;5076087;28;20446;-79
2023/05/15 05:29:40;;;;;;;1.53;1.43;;;11.80;99.90;;;;;;5075725;28;20456;-79
2023/05/15 05:32:07;;;;;;;1.97;1.67;;;11.90;99.90;;;;;;5075952;28;20446;-79
2023/05/15 05:34:34;;;;;;;1.00;0.90;;;12.00;99.90;;;;;;5075495;28;20858;-79
2023/05/15 05:37:01;;;;;;;1.43;1.10;;;12.20;99.90;;;;;;5075648;28;20433;-79
2023/05/15 05:39:29;;;;;;;1.60;1.43;;;12.20;99.90;;;;;;5075438;28;20522;-79
2023/05/15 05:41:55;;;;;;;1.53;0.97;;;12.40;99.90;;;;;;5075754;28;20459;-79
2023/05/15 05:44:23;;;;;;;4.83;1.73;;;12.50;99.90;;;;;;5075629;28;20473;-79
2023/05/15 05:46:50;;;;;;;1.80;1.10;;;12.60;99.90;;;;;;5075654;28;20453;-79
2023/05/15 05:49:16;;;;;;;6.67;2.37;;;12.70;99.90;;;;;;5075623;28;20453;-79
2023/05/15 05:51:45;;;;;;;2.70;1.60;;;12.80;99.90;;;;;;5075289;28;20457;-80
2023/05/15 05:54:13;;;;;;;1.43;1.33;;;12.80;99.90;;;;;;5076226;28;20531;-80
2023/05/15 05:56:41;;;;;;;1.60;1.20;;;12.80;99.90;;;;;;5074837;28;20507;-80
2023/05/15 05:59:08;;;;;;;1.33;1.20;;;12.90;99.90;;;;;;5075394;28;20478;-79
2023/05/15 06:01:36;;;;;;;1.87;1.27;;;13.00;99.90;;;;;;5075407;28;20445;-79
2023/05/15 06:04:03;;;;;;;1.23;1.13;;;13.10;99.90;;;;;;5074805;28;20493;-80
2023/05/15 06:06:29;;;;;;;2.97;2.07;;;13.30;99.90;;;;;;5075360;28;20449;-80
2023/05/15 06:08:56;;;;;;;1.53;1.43;;;13.50;99.90;;;;;;5075231;28;21006;-79
2023/05/15 06:11:23;;;;;;;1.50;1.40;;;13.60;99.90;;;;;;5075275;28;20980;-80
2023/05/15 06:13:51;;;;;;;2.90;1.40;;;13.80;99.90;;;;;;5075094;28;20470;-79
2023/05/15 06:16:18;;;;;;;1.50;1.40;;;13.90;99.90;;;;;;5074829;28;20449;-80
2023/05/15 06:18:45;;;;;;;4.63;2.47;;;14.00;99.90;;;;;;5074982;28;20512;-79
2023/05/15 06:21:11;;;;;;;3.20;1.77;;;14.20;99.90;;;;;;5074766;28;20430;-80
2023/05/15 06:23:38;;;;;;;1.70;1.60;;;14.40;99.90;;;;;;5074872;28;20477;-80
2023/05/15 06:26:05;;;;;;;2.80;1.83;;;14.60;99.90;;;;;;5074605;28;20964;-80
2023/05/15 06:28:31;;;;;;;1.83;1.63;;;14.80;99.90;;;;;;5074881;28;20477;-80
2023/05/15 06:31:00;;;;;;;1.80;1.70;;;15.10;99.90;;;;;;5074858;28;20442;-79
2023/05/15 06:33:26;;;;;;;3.13;1.50;;;15.40;99.90;;;;;;5074661;28;20488;-80
2023/05/15 06:35:53;;;;;;;5.97;2.33;;;15.70;99.90;;;;;;5074740;28;20452;-79
2023/05/15 06:38:20;;;;;;;2.93;1.60;;;16.00;99.90;;;;;;5074328;28;20493;-79
2023/05/15 06:40:46;;;;;;;3.10;2.40;;;16.20;99.90;;;;;;5074697;28;20456;-79
2023/05/15 06:43:13;;;;;;;2.50;1.80;;;16.40;99.90;;;;;;5074706;28;20465;-79
2023/05/15 06:45:40;;;;;;;3.23;1.80;;;16.50;99.90;;;;;;5074398;28;20941;-79
2023/05/15 06:48:08;;;;;;;1.70;1.57;;;16.70;99.90;;;;;;5074860;28;20449;-79
2023/05/15 06:50:34;;;;;;;2.73;1.70;;;16.90;99.90;;;;;;5074567;28;20457;-79
2023/05/15 06:53:01;;;;;;;2.77;1.87;;;17.10;99.90;;;;;;5074966;28;20553;-79
2023/05/15 06:55:28;;;;;;;3.20;1.80;;;17.30;99.90;;;;;;5074849;28;20960;-79
2023/05/15 06:57:55;;;;;;;1.93;1.70;;;17.40;99.90;;;;;;5074350;28;20454;-79
2023/05/15 07:00:21;;;;;;;2.13;1.50;;;17.50;99.90;;;;;;5074556;28;20452;-79
2023/05/15 07:02:48;;;;;;;3.20;2.17;;;17.70;99.90;;;;;;5074074;28;20477;-79
2023/05/15 07:05:16;;;;;;;1.77;1.67;;;18.10;99.90;;;;;;5074104;28;20824;-79
2023/05/15 07:07:43;;;;;;;3.83;2.20;;;18.30;99.90;;;;;;5073533;28;20434;-79
2023/05/15 07:10:10;;;;;;;5.80;1.97;;;18.70;99.90;;;;;;5074241;28;20816;-79
2023/05/15 07:12:37;;;;;;;3.17;1.80;;;19.10;99.90;;;;;;5074104;28;20462;-79
2023/05/15 07:15:05;;;;;;;2.67;2.00;;;19.30;99.90;;;;;;5073978;28;20941;-80
2023/05/15 07:17:34;;;;;;;2.90;2.27;;;19.60;99.90;;;;;;5073863;28;20803;-79
2023/05/15 07:20:01;;;;;;;2.63;1.97;;;20.00;99.90;;;;;;5074006;28;20527;-79
2023/05/15 07:22:29;;;;;;;4.33;2.53;;;20.20;99.90;;;;;;5074044;28;20452;-79
2023/05/15 07:24:56;;;;;;;2.80;1.53;;;20.40;99.90;;;;;;5074052;28;20799;-79
2023/05/15 07:27:22;;;;;;;1.80;1.70;;;20.60;99.90;;;;;;5073701;28;20449;-79
2023/05/15 07:29:49;;;;;;;2.30;2.00;;;20.80;99.90;;;;;;5073848;28;20449;-79
2023/05/15 07:32:16;;;;;;;3.37;3.07;;;21.30;99.90;;;;;;5074649;28;20444;-80
2023/05/15 07:34:42;;;;;;;1.57;1.30;;;21.90;99.90;;;;;;5073689;28;20547;-80
2023/05/15 07:37:09;;;;;;;3.33;2.35;;;22.50;99.90;;;;;;5073869;28;20199;-80
2023/05/15 07:39:37;;;;;;;1.75;1.65;;;23.30;99.90;;;;;;5073853;28;20246;-80
2023/05/15 07:42:04;;;;;;;2.25;1.70;;;23.80;99.90;;;;;;5073735;28;20210;-80
2023/05/15 07:44:31;;;;;;;2.17;2.00;;;24.20;99.90;;;;;;5073607;28;20229;-79
2023/05/15 07:46:59;;;;;;;2.25;1.35;;;24.50;99.90;;;;;;5073630;28;20205;-79
2023/05/15 07:49:25;;;;;;;1.75;1.45;;;25.00;99.90;;;;;;5073667;28;20206;-80
2023/05/15 07:51:52;;;;;;;1.30;1.17;;;25.90;99.90;;;;;;5073511;28;20205;-80
2023/05/15 07:54:19;;;;;;;1.27;1.17;;;27.10;99.50;;;;;;5073527;28;20237;-80
2023/05/15 07:56:47;;;;;;;1.50;1.40;;;27.90;95.60;;;;;;5073719;28;20213;-80
2023/05/15 07:59:14;;;;;;;0.90;0.90;;;28.70;92.00;;;;;;5073529;28;20218;-80
2023/05/15 08:01:41;;;;;;;2.22;1.35;;;28.70;88.50;;;;;;5073491;28;20206;-80
2023/05/15 08:04:09;;;;;;;1.70;1.38;;;27.50;87.00;;;;;;5072977;28;20794;-80
2023/05/15 08:06:37;;;;;;;1.35;1.25;;;26.20;90.00;;;;;;5073413;28;20207;-80
2023/05/15 08:09:04;;;;;;;1.33;1.23;;;25.60;91.50;;;;;;5073508;28;20195;-80
2023/05/15 08:11:30;;;;;;;0.90;0.90;;;24.70;91.10;;;;;;5073428;28;20202;-82
2023/05/15 08:13:59;;;;;;;1.50;1.40;;;23.70;91.60;;;;;;5073302;28;20254;-79
2023/05/15 08:16:25;;;;;;;1.50;1.40;;;22.80;93.40;;;;;;5074094;28;20232;-79
2023/05/15 08:18:57;;;;;;;4.10;1.00;;;22.40;95.40;;;;;;5073408;28;20222;-80
2023/05/15 08:21:23;;;;;;;1.00;1.00;;;22.30;95.00;;;;;;5077556;28;20225;-80
2023/05/15 08:23:50;;;;;;;3.15;1.30;;;22.10;95.10;;;;;;5077345;28;20222;-79
2023/05/15 08:26:17;;;;;;;1.50;1.13;;;22.10;96.00;;;;;;5077391;28;20206;-79
2023/05/15 08:28:43;;;;;;;0.90;0.87;;;21.70;96.80;;;;;;5077030;28;20206;-79
2023/05/15 08:31:12;;;;;;;0.73;0.73;;;21.20;97.30;;;;;;5077287;28;20202;-80
2023/05/15 08:33:38;;;;;;;1.50;1.40;;;20.90;97.10;;;;;;5077108;28;20543;-80
2023/05/15 08:36:05;;;;;;;1.30;1.20;;;20.60;98.00;;;;;;5077147;28;20457;-79
2023/05/15 08:38:32;;;;;;;2.60;1.70;;;20.60;98.20;;;;;;5077032;28;20452;-79
2023/05/15 08:41:07;;;;;;;2.77;1.63;;;20.80;98.50;;;;;;5076980;28;20448;-79
2023/05/15 08:43:36;;;;;;;2.07;1.87;;;21.30;98.50;;;;;;5076576;28;20464;-80
2023/05/15 08:46:03;;;;;;;2.17;1.97;;;21.60;99.00;;;;;;5076611;28;20433;-80
2023/05/15 08:48:32;;;;;;;1.47;1.37;;;21.70;98.40;;;;;;5076612;28;20434;-80
2023/05/15 08:51:00;;;;;;;1.47;1.40;;;21.50;97.90;;;;;;5076493;28;20955;-80
2023/05/15 08:53:29;;;;;;;1.70;1.60;;;21.50;97.70;;;;;;5076709;28;20479;-80
2023/05/15 08:55:56;;;;;;;1.93;1.73;;;21.60;96.80;;;;;;5076729;28;20456;-80
2023/05/15 08:58:24;;;;;;;4.10;1.63;;;21.70;96.00;;;;;;5076692;28;20449;-76
2023/05/15 09:00:52;;;;;;;1.30;1.20;;;21.50;96.40;;;;;;5076222;28;20898;-79
2023/05/15 09:03:21;;;;;;;2.00;1.67;;;21.20;97.20;;;;;;5075976;28;20468;-80
2023/05/15 09:05:52;;;;;;;0.90;0.90;;;21.20;98.40;;;;;;5076533;28;20448;-80
2023/05/15 09:08:21;;;;;;;2.07;1.83;;;21.30;97.00;;;;;;5076612;28;20441;-80
2023/05/15 09:10:48;;;;;;;1.53;1.43;;;21.10;96.40;;;;;;5076123;28;20448;-80
2023/05/15 09:13:16;;;;;;;1.87;1.50;;;20.70;97.20;;;;;;5076314;28;20818;-79
2023/05/15 09:15:42;;;;;;;2.77;2.10;;;20.40;97.70;;;;;;5076510;28;20440;-80
2023/05/15 09:18:10;;;;;;;1.30;1.20;;;20.40;98.10;;;;;;5076422;28;20444;-80
2023/05/15 09:20:38;;;;;;;2.50;1.93;;;20.60;97.30;;;;;;5075796;28;20480;-80
2023/05/15 09:23:22;;;;;;;2.77;1.67;;;20.50;97.80;;;;;;5076192;28;20542;-80
2023/05/15 09:25:52;;;;;;;1.90;1.80;;;20.20;97.30;;;;;;5075868;28;20417;-80
2023/05/15 09:28:26;;;;;;;2.17;1.97;;;19.80;98.90;;;;;;5075859;28;20449;-80
2023/05/15 09:30:57;;;;;;;3.77;2.10;;;19.30;99.90;;;;;;5075123;28;20435;-79
2023/05/15 09:33:28;;;;;;;4.00;2.43;;;18.50;99.90;;;;;;5075992;28;20833;-79
2023/05/15 09:35:54;;;;;;;2.30;2.00;;;17.70;99.90;;;;;;5076268;28;20457;-78
2023/05/15 09:38:23;;;;;;;2.40;1.50;;;17.00;99.90;;;;;;5075689;28;20545;-79
2023/05/15 09:40:50;;;;;;;4.47;3.37;;;16.40;99.90;;;;;;5075232;28;21012;-79
2023/05/15 09:43:17;;;;;;;5.30;1.90;;;16.00;99.90;;;;;;5075481;28;20523;-79
2023/05/15 09:45:47;;;;;;;2.90;2.20;;;15.50;99.90;;;;;;5075283;28;20441;-78
2023/05/15 09:48:14;;;;;;;2.40;2.20;;;15.40;99.90;;;;;;5075615;28;20449;-78
2023/05/15 09:50:41;;;;;;;2.03;1.50;;;15.30;99.90;;;;;;5075196;28;20528;-78
2023/05/15 09:53:11;;;;;;;3.27;2.00;;;15.20;99.90;;;;;;5075342;28;20481;-78
2023/05/15 09:55:42;;;;;;;2.43;1.93;;;15.30;99.90;;;;;;5075100;28;20430;-78
2023/05/15 09:58:10;;;;;;;1.60;1.37;;;15.30;99.90;;;;;;5075572;28;20442;-77
2023/05/15 10:00:37;;;;;;;2.20;1.83;;;15.40;99.90;;;;;;5074938;28;20481;-78
2023/05/15 10:03:05;;;;;;;2.40;2.00;;;15.60;99.90;;;;;;5075035;28;20489;-78
2023/05/15 10:05:32;;;;;;;3.93;2.00;;;15.80;99.90;;;;;;5075078;28;20945;-78
2023/05/15 10:07:59;;;;;;;1.60;1.50;;;16.10;99.90;;;;;;5075377;28;20461;-78
2023/05/15 10:10:28;;;;;;;4.60;2.93;;;16.50;99.90;;;;;;5075002;28;20824;-78
2023/05/15 10:13:00;;;;;;;2.63;2.27;;;16.80;99.90;;;;;;5074911;28;20465;-78
2023/05/15 10:15:28;;;;;;;5.23;1.40;;;16.90;99.90;;;;;;5075213;28;20466;-78
2023/05/15 10:17:55;;;;;;;1.80;1.70;;;17.00;99.90;;;;;;5075181;28;20450;-79
2023/05/15 10:20:24;;;;;;;2.07;1.80;;;17.20;99.90;;;;;;5075117;28;20477;-79
2023/05/15 10:22:53;;;;;;;2.50;1.87;;;17.40;99.90;;;;;;5074653;28;20833;-79
2023/05/15 10:25:26;;;;;;;2.90;2.10;;;17.70;99.90;;;;;;5074966;28;20452;-79
2023/05/15 10:27:55;;;;;;;2.10;1.87;;;18.00;99.90;;;;;;5074894;28;20817;-79
2023/05/15 10:30:22;;;;;;;2.27;2.07;;;18.40;99.90;;;;;;5074600;28;20437;-79
2023/05/15 10:32:50;;;;;;;3.23;1.30;;;18.90;99.90;;;;;;5074813;28;20829;-79
2023/05/15 10:35:17;;;;;;;2.40;1.97;;;19.20;99.90;;;;;;5074821;28;20433;-80
2023/05/15 10:37:45;;;;;;;1.83;1.73;;;19.40;99.90;;;;;;5074778;28;20457;-80
2023/05/15 10:40:14;;;;;;;1.30;1.20;;;19.70;99.90;;;;;;5074697;28;20469;-79
2023/05/15 10:42:42;;;;;;;2.20;1.80;;;20.00;99.90;;;;;;5073707;28;20465;-79
2023/05/15 10:45:11;;;;;;;1.53;1.43;;;19.90;99.90;;;;;;5074437;28;20515;-80
2023/05/15 10:47:40;;;;;;;2.30;1.60;;;19.90;99.90;;;;;;5074560;28;20457;-80
2023/05/15 10:50:08;;;;;;;1.60;1.50;;;19.80;99.90;;;;;;5074473;28;20536;-80
2023/05/15 10:52:37;;;;;;;1.40;1.30;;;19.90;99.90;;;;;;5074414;28;20519;-80
2023/05/15 10:55:07;;;;;;;1.87;1.50;;;19.90;99.90;;;;;;5074438;28;20441;-81
2023/05/15 10:57:34;;;;;;;1.27;0.90;;;20.30;99.90;;;;;;5074445;28;20474;-80
2023/05/15 11:00:02;;;;;;;1.17;1.07;;;20.80;99.90;;;;;;5074280;28;20481;-80
2023/05/15 11:02:32;;;;;;;2.30;1.23;;;21.10;99.90;;;;;;5073975;28;20512;-80
2023/05/15 11:05:00;;;;;;;0.90;0.90;;;21.20;99.90;;;;;;5073933;28;20952;-81
2023/05/15 11:07:27;;;;;;;3.00;1.00;;;21.20;99.90;;;;;;5074192;28;20449;-81
2023/05/15 11:09:54;;;;;;;1.80;1.60;;;21.20;99.90;;;;;;5074168;28;20464;-81
2023/05/15 11:12:22;;;;;;;1.30;1.20;;;21.20;99.90;;;;;;5074085;28;20535;-81
2023/05/15 11:15:20;;;;;;;1.00;1.00;;;21.30;99.90;;;;;;5074109;28;20448;-81
2023/05/15 11:18:04;;;;;;;1.37;1.27;;;20.90;99.90;;;;;;5074031;28;20514;-81
2023/05/15 11:20:38;;;;;;;1.20;1.10;;;20.50;99.90;;;;;;5071905;28;20489;-81
2023/05/15 11:23:04;;;;;;;1.23;1.10;;;20.20;99.90;;;;;;5073881;28;20541;-81
2023/05/15 11:25:31;;;;;;;1.27;1.03;;;19.80;99.90;;;;;;5073911;28;20453;-81
2023/05/15 11:27:58;;;;;;;1.20;1.10;;;19.70;99.90;;;;;;5073870;28;20502;-81
2023/05/15 11:30:35;;;;;;;3.60;1.10;;;19.70;99.90;;;;;;5073875;28;20449;-81
2023/05/15 11:33:07;;;;;;;1.50;1.40;;;19.90;99.90;;;;;;5073444;28;20845;-81
2023/05/15 11:35:36;;;;;;;2.77;1.23;;;20.00;99.90;;;;;;5073470;28;20528;-81
2023/05/15 11:38:04;;;;;;;0.90;0.90;;;20.00;99.90;;;;;;5073410;28;20991;-81
2023/05/15 11:40:33;;;;;;;3.60;1.30;;;19.90;99.90;;;;;;5073611;28;20485;-81
2023/05/15 11:43:05;;;;;;;1.60;1.30;;;19.80;99.90;;;;;;5073551;28;20465;-80
2023/05/15 11:45:33;;;;;;;1.60;1.13;;;19.70;99.90;;;;;;5073690;28;20446;-80
2023/05/15 11:48:02;;;;;;;1.73;0.93;;;19.60;99.90;;;;;;5073587;28;20449;-80
2023/05/15 11:50:32;;;;;;;1.53;1.43;;;19.70;99.90;;;;;;5073585;28;20479;-80
2023/05/15 11:53:01;;;;;;;3.20;1.17;;;19.90;99.90;;;;;;5073488;28;20518;-80
2023/05/15 11:55:30;;;;;;;1.07;1.00;;;20.20;99.90;;;;;;5073212;28;20445;-80
2023/05/15 11:57:57;;;;;;;1.40;1.30;;;20.40;99.90;;;;;;5073345;28;20453;-80
2023/05/15 12:00:24;;;;;;;0.90;0.80;;;20.50;99.90;;;;;;5073407;28;20491;-80
2023/05/15 12:02:51;;;;;;;0.80;0.80;;;20.80;99.90;;;;;;5072762;28;20484;-80
2023/05/15 12:05:18;;;;;;;1.17;1.17;;;21.00;99.90;;;;;;5073167;28;20445;-80
2023/05/15 12:07:47;;;;;;;1.00;0.93;;;21.10;99.90;;;;;;5073422;28;20459;-80
2023/05/15 12:10:13;;;;;;;2.00;0.93;;;21.10;99.90;;;;;;5073400;28;20444;-80
2023/05/15 12:12:41;;;;;;;1.13;1.03;;;20.80;99.90;;;;;;5073247;28;20469;-80
2023/05/15 12:15:10;;;;;;;0.97;0.93;;;20.60;99.90;;;;;;5073054;28;20476;-80
2023/05/15 12:17:38;;;;;;;2.60;0.90;;;20.30;99.90;;;;;;5073058;28;20437;-80
2023/05/15 12:20:07;;;;;;;1.60;1.40;;;20.10;99.90;;;;;;5073159;28;20488;-81
2023/05/15 12:22:36;;;;;;;1.33;1.00;;;19.90;99.90;;;;;;5072953;28;20937;-80
2023/05/15 12:25:06;;;;;;;0.87;0.87;;;19.60;99.90;;;;;;5073200;28;20449;-80
2023/05/15 12:27:33;;;;;;;1.60;1.37;;;19.40;99.90;;;;;;5073165;28;20448;-79
2023/05/15 12:30:02;;;;;;;2.40;1.40;;;19.20;99.90;;;;;;5073139;28;20433;-79
2023/05/15 12:32:31;;;;;;;1.27;1.13;;;19.00;99.90;;;;;;5072659;28;20484;-78
2023/05/15 12:34:59;;;;;;;0.80;0.80;;;18.90;99.90;;;;;;5072723;28;20972;-80
2023/05/15 12:37:25;;;;;;;0.90;0.90;;;18.80;99.90;;;;;;5073055;28;20446;-79
2023/05/15 12:39:54;;;;;;;1.13;0.90;;;18.90;99.90;;;;;;5072629;28;20868;-80
2023/05/15 12:42:22;;;;;;;0.90;0.90;;;18.90;99.90;;;;;;5072615;28;20849;-80
2023/05/15 12:44:52;;;;;;;1.53;1.17;;;18.90;99.90;;;;;;5072786;28;20445;-80
2023/05/15 12:47:23;;;;;;;2.20;1.13;;;18.90;99.90;;;;;;5072920;28;20450;-80
2023/05/15 12:49:50;;;;;;;2.20;1.40;;;18.90;99.90;;;;;;5072941;28;20449;-79
2023/05/15 12:52:17;;;;;;;1.50;1.40;;;18.80;99.90;;;;;;5072962;28;20817;-79